メインページ
METAR-TAF:

METAR-TAF

空港 :

Hillsdale Municipal Airport

ヒルズデール, ミシガン州, アメリカ合衆国

緯度: 41-55-17N, 経度: 084-35-09W, 海抜: 360m

現時点の気象観測

当レポートは11分前の20:15(UTC)に作成
の風 8kt
気温 1°C
湿度 59%
気圧 1027 hPa
視程: 16.1km
高度8000ftの曇り

METAR: KJYM 072015Z AUTO 17008KT 10SM OVC080 01/M06 A3033 RMK AO2 T00051061

時間: 15:26 (20:26 UTC)


TAF: 見つかりません

4,000以上の空港の気象観測と天気予報(METAR報とTAF報)

利用可能な観測所は地図上に黄色い丸と赤い丸で示す。

丸の上にカーソルを重ねると観測所名を参照できる。

次にクリックすると気象観測と天気予報を参照できる。

マップの切り替え:黒色「×」印の緑ボタンをクリックして拡大、「-」印の緑ボタンをクリックして縮小、緑色の三角印をクリックして隣りの地図に切り替え


METAR-TAF: